Terminal Aerodrome Forecast
Issued by NWS North Platte, NE

Home | Current Version | Previous Version | Text Only | Print | Product List | Glossary On
Versions: 1 2 3 4 5 6 7 8 9 10 11 12 13
372
FTUS43 KLBF 221120
TAFVTN
TAF
KVTN 221120Z 2212/2312 27009KT P6SM SCT250
     FM221400 28010KT P6SM SCT250
     FM221600 30014G21KT P6SM SCT200
     FM230000 32008KT P6SM SCT200
     FM230200 35008KT P6SM BKN200
     FM230400 01009KT P6SM BKN070
     FM230700 02010KT P6SM OVC008
     FM230800 03009KT P6SM -SN OVC008=

USA.gov is the U.S. government's official web portal to all federal, state and local government web resources and services.